Meteo Giornale » Osservazioni meteo Italia » Catania-Fontanarossa

ore: 19:20 - Osservazioni Meteo Catania-Fontanarossa
Lat. 37° 28' N Lon. 15° 3' E Alt. 11 metri s.l.m.

sereno Europe/Rome

20 °C

Sereno

Temp. 24 Ore

9 °C

25 °C

Est

9.3 Km/h

Dew point 13 °C

Umidità 64 %

Visibilità  10 Km

Il sole sorge alle ore 06:11

Il sole tramonta alle ore 19:44

Data e Ora Cielo e Fenomeni T °C DP °C Um. % Pres. hPa Vis. km Vento km/h
Oggi h: 19:20 sereno Sereno 20 13 64 1018 10 E 9.3
Oggi h: 18:50 sereno Sereno 21 14 64 1018 10 E 11.1
Oggi h: 18:20 sereno Sereno 21 13 60 1018 10 E 16.7
Oggi h: 17:50 sereno Sereno 22 13 56 1018 10 E 18.5
Oggi h: 17:20 sereno Sereno 23 12 49 1018 10 E 16.7
Oggi h: 16:50 sereno Sereno 23 12 49 1018 10 E 16.7
Oggi h: 16:20 sereno Sereno 24 11 43 1018 10 E 16.7
Oggi h: 15:50 sereno Sereno 24 12 47 1018 10 E 22.2
Oggi h: 15:20 sereno Sereno 25 11 41 1018 10 E 22.2
Oggi h: 14:50 sereno Sereno 25 9 36 1018 10 E/NE 22.2
Oggi h: 14:20 sereno Sereno 25 11 41 1019 10 E/NE 22.2
Oggi h: 13:50 sereno Sereno 24 12 47 1019 10 E/NE 22.2
Oggi h: 13:20 sereno Sereno 24 14 53 1019 10 E 18.5
Oggi h: 12:50 sereno Sereno 24 13 50 1019 10 E 14.8
Oggi h: 12:20 sereno Sereno 24 11 43 1019 10 E 14.8
Oggi h: 11:50 sereno Sereno 24 10 41 1019 10 E 13
Oggi h: 11:20 sereno Sereno 23 10 43 1020 10 E 13
Oggi h: 10:50 sereno Sereno 23 10 43 1020 10 E 13
Oggi h: 10:20 sereno Sereno 25 9 36 1019 10 N 3.7
Oggi h: 09:50 sereno Sereno 24 9 38 1019 10 N 3.7
Oggi h: 09:20 sereno Sereno 20 11 56 1019 10 O 7.4
Oggi h: 08:50 sereno Sereno 17 12 72 1019 10 O/SO 9.3
Oggi h: 08:20 sereno Sereno 14 11 82 1019 10 O/SO 9.3
Oggi h: 07:50 sereno Sereno 12 10 87 1019 10 SO 7.4
Oggi h: 07:20 sereno Sereno 11 10 93 1019 10 N 5.5
Oggi h: 06:50 sereno Sereno 9 8 93 1019 10 SO 7.4
Oggi h: 06:20 sereno Sereno 9 8 93 1018 10 O 9.3
Oggi h: 05:50 sereno Sereno 10 8 87 1018 10 N 5.5
Oggi h: 05:20 sereno Sereno 10 9 93 1018 10 N 5.5
Oggi h: 04:50 sereno Sereno 11 9 87 1018 10 O/SO 9.3
Oggi h: 04:20 sereno Sereno 11 10 93 1018 10 O/SO 11.1
Oggi h: 03:50 sereno Sereno 11 10 93 1018 10 O/SO 11.1
Oggi h: 03:20 sereno Sereno 11 10 93 1018 10 O/SO 11.1
Oggi h: 02:50 sereno Sereno 11 10 93 1018 10 O/SO 11.1
Oggi h: 02:20 sereno Sereno 12 10 87 1018 10 O/SO 9.3
Oggi h: 01:50 sereno Sereno 12 10 87 1018 10 SO 9.3
Oggi h: 01:20 sereno Sereno 13 12 93 1019 10 O/SO 7.4
Oggi h: 00:50 sereno Sereno 13 11 87 1019 10 O 7.4
Oggi h: 00:20 sereno Sereno 14 11 82 1019 10 O 7.4
Ieri h: 23:50 sereno Sereno 14 11 82 1019 10 N 5.5
Ieri h: 23:20 sereno Sereno 18 13 72 1018 10 N 3.7
Ieri h: 22:50 sereno Sereno 18 13 72 1018 10 N 3.7
Ieri h: 22:20 sereno Sereno 18 13 72 1018 10 N 1.8
Ieri h: 21:50 sereno Sereno 18 13 72 1018 10 N 1.8
Ieri h: 21:20 sereno Sereno 19 14 72 1018 10 N 3.7
Ieri h: 20:50 sereno Sereno 18 12 67 1018 10 N 3.7
Ieri h: 20:20 sereno Sereno 19 13 68 1018 10 N 3.7
Ieri h: 19:50 sereno Sereno 19 13 68 1017 10 E/SE 7.4